sensor_id;sensor_type;location;lat;lon;timestamp;temperature;humidity
16666;DHT22;8446;50.998;6.250;2023-06-26T00:00:09;18.90;87.20
16666;DHT22;8446;50.998;6.250;2023-06-26T00:02:36;18.60;88.10
16666;DHT22;8446;50.998;6.250;2023-06-26T00:05:04;18.50;88.40
16666;DHT22;8446;50.998;6.250;2023-06-26T00:07:31;18.20;88.90
16666;DHT22;8446;50.998;6.250;2023-06-26T00:09:59;18.20;88.80
16666;DHT22;8446;50.998;6.250;2023-06-26T00:12:26;18.40;87.80
16666;DHT22;8446;50.998;6.250;2023-06-26T00:14:53;18.40;87.90
16666;DHT22;8446;50.998;6.250;2023-06-26T00:17:21;18.30;88.70
16666;DHT22;8446;50.998;6.250;2023-06-26T00:19:49;18.50;87.90
16666;DHT22;8446;50.998;6.250;2023-06-26T00:22:16;18.50;87.90
16666;DHT22;8446;50.998;6.250;2023-06-26T00:24:43;18.40;87.90
16666;DHT22;8446;50.998;6.250;2023-06-26T00:27:11;18.30;88.20
16666;DHT22;8446;50.998;6.250;2023-06-26T00:29:38;18.30;88.40
16666;DHT22;8446;50.998;6.250;2023-06-26T00:32:06;18.50;87.70
16666;DHT22;8446;50.998;6.250;2023-06-26T00:34:34;18.30;88.10
16666;DHT22;8446;50.998;6.250;2023-06-26T00:37:01;18.20;88.30
16666;DHT22;8446;50.998;6.250;2023-06-26T00:39:29;18.20;87.60
16666;DHT22;8446;50.998;6.250;2023-06-26T00:41:56;18.50;86.60
16666;DHT22;8446;50.998;6.250;2023-06-26T00:44:23;18.70;85.70
16666;DHT22;8446;50.998;6.250;2023-06-26T00:46:50;18.70;85.00
16666;DHT22;8446;50.998;6.250;2023-06-26T00:49:20;18.70;85.40
16666;DHT22;8446;50.998;6.250;2023-06-26T00:51:49;18.70;86.20
16666;DHT22;8446;50.998;6.250;2023-06-26T00:54:16;18.60;85.30
16666;DHT22;8446;50.998;6.250;2023-06-26T00:56:45;18.50;86.10
16666;DHT22;8446;50.998;6.250;2023-06-26T00:59:13;18.30;86.30
16666;DHT22;8446;50.998;6.250;2023-06-26T01:01:40;18.30;86.60
16666;DHT22;8446;50.998;6.250;2023-06-26T01:04:07;18.50;85.80
16666;DHT22;8446;50.998;6.250;2023-06-26T01:06:44;18.40;85.10
16666;DHT22;8446;50.998;6.250;2023-06-26T01:09:17;18.30;86.10
16666;DHT22;8446;50.998;6.250;2023-06-26T01:11:44;18.20;85.10
16666;DHT22;8446;50.998;6.250;2023-06-26T01:14:11;18.20;85.90
16666;DHT22;8446;50.998;6.250;2023-06-26T01:16:38;18.00;86.20
16666;DHT22;8446;50.998;6.250;2023-06-26T01:19:10;18.20;84.20
16666;DHT22;8446;50.998;6.250;2023-06-26T01:21:42;18.30;83.30
16666;DHT22;8446;50.998;6.250;2023-06-26T01:24:15;18.60;82.90
16666;DHT22;8446;50.998;6.250;2023-06-26T01:26:49;18.50;83.40
16666;DHT22;8446;50.998;6.250;2023-06-26T01:29:18;18.40;83.70
16666;DHT22;8446;50.998;6.250;2023-06-26T01:31:46;18.20;84.50
16666;DHT22;8446;50.998;6.250;2023-06-26T01:34:15;18.40;83.30
16666;DHT22;8446;50.998;6.250;2023-06-26T01:36:44;18.50;82.70
16666;DHT22;8446;50.998;6.250;2023-06-26T01:39:12;18.60;81.90
16666;DHT22;8446;50.998;6.250;2023-06-26T01:41:39;18.70;81.00
16666;DHT22;8446;50.998;6.250;2023-06-26T01:44:18;18.70;81.40
16666;DHT22;8446;50.998;6.250;2023-06-26T01:46:55;18.80;81.10
16666;DHT22;8446;50.998;6.250;2023-06-26T01:49:33;19.00;79.50
16666;DHT22;8446;50.998;6.250;2023-06-26T01:52:07;19.30;77.90
16666;DHT22;8446;50.998;6.250;2023-06-26T01:54:39;19.20;78.30
16666;DHT22;8446;50.998;6.250;2023-06-26T01:57:08;19.10;78.60
16666;DHT22;8446;50.998;6.250;2023-06-26T01:59:39;18.80;80.70
16666;DHT22;8446;50.998;6.250;2023-06-26T02:02:07;18.50;82.20
16666;DHT22;8446;50.998;6.250;2023-06-26T02:04:34;18.40;83.10
16666;DHT22;8446;50.998;6.250;2023-06-26T02:07:01;18.70;81.50
16666;DHT22;8446;50.998;6.250;2023-06-26T02:09:28;18.80;81.80
16666;DHT22;8446;50.998;6.250;2023-06-26T02:11:54;19.10;80.60
16666;DHT22;8446;50.998;6.250;2023-06-26T02:14:21;19.10;80.40
16666;DHT22;8446;50.998;6.250;2023-06-26T02:16:49;19.20;80.60
16666;DHT22;8446;50.998;6.250;2023-06-26T02:19:16;19.20;80.80
16666;DHT22;8446;50.998;6.250;2023-06-26T02:21:47;19.20;81.20
16666;DHT22;8446;50.998;6.250;2023-06-26T02:24:14;19.30;81.10
16666;DHT22;8446;50.998;6.250;2023-06-26T02:26:41;19.20;81.50
16666;DHT22;8446;50.998;6.250;2023-06-26T02:29:08;19.20;81.90
16666;DHT22;8446;50.998;6.250;2023-06-26T02:31:35;19.30;81.50
16666;DHT22;8446;50.998;6.250;2023-06-26T02:34:03;19.20;81.90
16666;DHT22;8446;50.998;6.250;2023-06-26T02:36:30;19.20;81.80
16666;DHT22;8446;50.998;6.250;2023-06-26T02:38:57;19.30;81.70
16666;DHT22;8446;50.998;6.250;2023-06-26T02:41:23;19.20;82.30
16666;DHT22;8446;50.998;6.250;2023-06-26T02:43:50;19.20;82.10
16666;DHT22;8446;50.998;6.250;2023-06-26T02:46:17;19.10;82.80
16666;DHT22;8446;50.998;6.250;2023-06-26T02:48:44;19.30;81.60
16666;DHT22;8446;50.998;6.250;2023-06-26T02:51:12;19.30;82.00
16666;DHT22;8446;50.998;6.250;2023-06-26T02:53:39;19.30;81.90
16666;DHT22;8446;50.998;6.250;2023-06-26T02:56:06;19.40;81.50
16666;DHT22;8446;50.998;6.250;2023-06-26T02:58:33;19.50;80.70
16666;DHT22;8446;50.998;6.250;2023-06-26T03:00:59;19.40;81.10
16666;DHT22;8446;50.998;6.250;2023-06-26T03:03:26;19.50;80.20
16666;DHT22;8446;50.998;6.250;2023-06-26T03:05:53;19.40;80.60
16666;DHT22;8446;50.998;6.250;2023-06-26T03:08:21;19.30;81.20
16666;DHT22;8446;50.998;6.250;2023-06-26T03:10:48;19.30;81.30
16666;DHT22;8446;50.998;6.250;2023-06-26T03:13:15;19.40;80.70
16666;DHT22;8446;50.998;6.250;2023-06-26T03:15:42;19.30;81.40
16666;DHT22;8446;50.998;6.250;2023-06-26T03:18:08;19.20;82.10
16666;DHT22;8446;50.998;6.250;2023-06-26T03:20:36;19.10;82.40
16666;DHT22;8446;50.998;6.250;2023-06-26T03:23:03;19.10;82.50
16666;DHT22;8446;50.998;6.250;2023-06-26T03:25:31;19.10;83.10
16666;DHT22;8446;50.998;6.250;2023-06-26T03:27:58;19.20;82.80
16666;DHT22;8446;50.998;6.250;2023-06-26T03:30:25;19.10;83.60
16666;DHT22;8446;50.998;6.250;2023-06-26T03:32:51;19.20;82.90
16666;DHT22;8446;50.998;6.250;2023-06-26T03:35:19;19.10;83.40
16666;DHT22;8446;50.998;6.250;2023-06-26T03:37:45;19.10;83.70
16666;DHT22;8446;50.998;6.250;2023-06-26T03:40:12;19.00;83.50
16666;DHT22;8446;50.998;6.250;2023-06-26T03:42:41;19.10;82.90
16666;DHT22;8446;50.998;6.250;2023-06-26T03:45:08;19.00;83.00
16666;DHT22;8446;50.998;6.250;2023-06-26T03:47:35;19.10;82.50
16666;DHT22;8446;50.998;6.250;2023-06-26T03:50:01;19.10;82.70
16666;DHT22;8446;50.998;6.250;2023-06-26T03:52:28;19.10;82.70
16666;DHT22;8446;50.998;6.250;2023-06-26T03:54:56;19.10;82.40
16666;DHT22;8446;50.998;6.250;2023-06-26T03:57:23;19.10;82.20
16666;DHT22;8446;50.998;6.250;2023-06-26T03:59:52;19.10;81.40
16666;DHT22;8446;50.998;6.250;2023-06-26T04:02:18;19.20;80.70
16666;DHT22;8446;50.998;6.250;2023-06-26T04:04:45;19.00;81.00
16666;DHT22;8446;50.998;6.250;2023-06-26T04:07:12;19.00;80.50
16666;DHT22;8446;50.998;6.250;2023-06-26T04:09:39;18.90;81.00
16666;DHT22;8446;50.998;6.250;2023-06-26T04:12:06;18.80;81.60
16666;DHT22;8446;50.998;6.250;2023-06-26T04:14:33;18.90;80.60
16666;DHT22;8446;50.998;6.250;2023-06-26T04:17:02;18.90;79.90
16666;DHT22;8446;50.998;6.250;2023-06-26T04:19:29;18.80;80.30
16666;DHT22;8446;50.998;6.250;2023-06-26T04:21:56;18.80;80.60
16666;DHT22;8446;50.998;6.250;2023-06-26T04:24:23;18.60;81.30
16666;DHT22;8446;50.998;6.250;2023-06-26T04:26:49;18.70;80.90
16666;DHT22;8446;50.998;6.250;2023-06-26T04:29:16;18.60;81.40
16666;DHT22;8446;50.998;6.250;2023-06-26T04:31:43;18.60;80.70
16666;DHT22;8446;50.998;6.250;2023-06-26T04:34:13;18.60;81.20
16666;DHT22;8446;50.998;6.250;2023-06-26T04:36:40;18.60;81.80
16666;DHT22;8446;50.998;6.250;2023-06-26T04:39:11;18.80;81.30
16666;DHT22;8446;50.998;6.250;2023-06-26T04:41:40;18.80;81.00
16666;DHT22;8446;50.998;6.250;2023-06-26T04:44:06;18.80;81.40
16666;DHT22;8446;50.998;6.250;2023-06-26T04:46:33;18.80;81.90
16666;DHT22;8446;50.998;6.250;2023-06-26T04:49:00;18.80;81.50
16666;DHT22;8446;50.998;6.250;2023-06-26T04:51:30;18.70;81.60
16666;DHT22;8446;50.998;6.250;2023-06-26T04:53:57;18.80;81.10
16666;DHT22;8446;50.998;6.250;2023-06-26T04:56:23;18.70;81.30
16666;DHT22;8446;50.998;6.250;2023-06-26T04:58:50;18.60;81.60
16666;DHT22;8446;50.998;6.250;2023-06-26T05:01:17;18.60;82.40
16666;DHT22;8446;50.998;6.250;2023-06-26T05:03:44;18.50;82.70
16666;DHT22;8446;50.998;6.250;2023-06-26T05:06:11;18.60;81.40
16666;DHT22;8446;50.998;6.250;2023-06-26T05:08:39;18.70;81.50
16666;DHT22;8446;50.998;6.250;2023-06-26T05:11:06;18.80;82.10
16666;DHT22;8446;50.998;6.250;2023-06-26T05:13:33;18.90;80.80
16666;DHT22;8446;50.998;6.250;2023-06-26T05:16:00;18.80;81.60
16666;DHT22;8446;50.998;6.250;2023-06-26T05:18:27;18.80;80.90
16666;DHT22;8446;50.998;6.250;2023-06-26T05:20:55;18.90;80.20
16666;DHT22;8446;50.998;6.250;2023-06-26T05:23:23;18.90;80.70
16666;DHT22;8446;50.998;6.250;2023-06-26T05:25:54;18.90;80.80
16666;DHT22;8446;50.998;6.250;2023-06-26T05:28:21;18.90;79.60
16666;DHT22;8446;50.998;6.250;2023-06-26T05:30:50;19.00;80.70
16666;DHT22;8446;50.998;6.250;2023-06-26T05:33:18;19.00;80.30
16666;DHT22;8446;50.998;6.250;2023-06-26T05:35:45;19.00;80.00
16666;DHT22;8446;50.998;6.250;2023-06-26T05:38:13;19.00;79.90
16666;DHT22;8446;50.998;6.250;2023-06-26T05:40:41;19.10;80.00
16666;DHT22;8446;50.998;6.250;2023-06-26T05:43:10;19.00;79.60
16666;DHT22;8446;50.998;6.250;2023-06-26T05:45:37;19.10;80.10
16666;DHT22;8446;50.998;6.250;2023-06-26T05:48:04;19.20;80.00
16666;DHT22;8446;50.998;6.250;2023-06-26T05:50:32;19.20;79.00
16666;DHT22;8446;50.998;6.250;2023-06-26T05:52:59;19.30;79.60
16666;DHT22;8446;50.998;6.250;2023-06-26T05:55:29;19.40;79.60
16666;DHT22;8446;50.998;6.250;2023-06-26T05:57:58;19.40;78.70
16666;DHT22;8446;50.998;6.250;2023-06-26T06:00:28;19.40;79.60
16666;DHT22;8446;50.998;6.250;2023-06-26T06:02:55;19.30;79.30
16666;DHT22;8446;50.998;6.250;2023-06-26T06:05:22;19.30;79.40
16666;DHT22;8446;50.998;6.250;2023-06-26T06:07:49;19.30;79.80
16666;DHT22;8446;50.998;6.250;2023-06-26T06:10:16;19.30;80.10
16666;DHT22;8446;50.998;6.250;2023-06-26T06:12:42;19.40;80.50
16666;DHT22;8446;50.998;6.250;2023-06-26T06:15:09;19.40;79.20
16666;DHT22;8446;50.998;6.250;2023-06-26T06:17:37;19.40;79.20
16666;DHT22;8446;50.998;6.250;2023-06-26T06:20:04;19.40;79.50
16666;DHT22;8446;50.998;6.250;2023-06-26T06:22:32;19.50;79.80
16666;DHT22;8446;50.998;6.250;2023-06-26T06:24:58;19.60;79.70
16666;DHT22;8446;50.998;6.250;2023-06-26T06:27:26;19.70;79.50
16666;DHT22;8446;50.998;6.250;2023-06-26T06:29:53;19.70;78.80
16666;DHT22;8446;50.998;6.250;2023-06-26T06:32:20;19.80;78.70
16666;DHT22;8446;50.998;6.250;2023-06-26T06:34:48;19.70;78.80
16666;DHT22;8446;50.998;6.250;2023-06-26T06:37:14;19.80;80.20
16666;DHT22;8446;50.998;6.250;2023-06-26T06:39:41;19.80;78.20
16666;DHT22;8446;50.998;6.250;2023-06-26T06:42:08;19.70;78.90
16666;DHT22;8446;50.998;6.250;2023-06-26T06:44:35;19.80;78.90
16666;DHT22;8446;50.998;6.250;2023-06-26T06:47:02;19.90;79.00
16666;DHT22;8446;50.998;6.250;2023-06-26T06:49:28;19.90;79.10
16666;DHT22;8446;50.998;6.250;2023-06-26T06:51:57;19.90;78.00
16666;DHT22;8446;50.998;6.250;2023-06-26T06:54:26;19.90;78.00
16666;DHT22;8446;50.998;6.250;2023-06-26T06:56:53;19.90;77.70
16666;DHT22;8446;50.998;6.250;2023-06-26T06:59:19;20.10;78.40
16666;DHT22;8446;50.998;6.250;2023-06-26T07:01:46;20.20;79.00
16666;DHT22;8446;50.998;6.250;2023-06-26T07:04:13;20.20;78.00
16666;DHT22;8446;50.998;6.250;2023-06-26T07:06:40;20.20;77.20
16666;DHT22;8446;50.998;6.250;2023-06-26T07:09:08;20.20;76.70
16666;DHT22;8446;50.998;6.250;2023-06-26T07:11:35;20.30;77.40
16666;DHT22;8446;50.998;6.250;2023-06-26T07:14:02;20.30;76.20
16666;DHT22;8446;50.998;6.250;2023-06-26T07:16:28;20.50;77.30
16666;DHT22;8446;50.998;6.250;2023-06-26T07:18:55;20.70;75.80
16666;DHT22;8446;50.998;6.250;2023-06-26T07:21:22;20.60;74.80
16666;DHT22;8446;50.998;6.250;2023-06-26T07:23:49;20.70;75.40
16666;DHT22;8446;50.998;6.250;2023-06-26T07:26:17;20.80;75.80
16666;DHT22;8446;50.998;6.250;2023-06-26T07:28:44;20.70;74.20
16666;DHT22;8446;50.998;6.250;2023-06-26T07:31:11;20.60;74.50
16666;DHT22;8446;50.998;6.250;2023-06-26T07:33:38;20.50;75.80
16666;DHT22;8446;50.998;6.250;2023-06-26T07:36:04;20.40;75.40
16666;DHT22;8446;50.998;6.250;2023-06-26T07:38:31;20.40;76.10
16666;DHT22;8446;50.998;6.250;2023-06-26T07:40:58;20.60;76.20
16666;DHT22;8446;50.998;6.250;2023-06-26T07:43:26;20.70;74.60
16666;DHT22;8446;50.998;6.250;2023-06-26T07:45:53;20.80;75.60
16666;DHT22;8446;50.998;6.250;2023-06-26T07:48:20;20.90;75.70
16666;DHT22;8446;50.998;6.250;2023-06-26T07:50:46;20.90;76.00
16666;DHT22;8446;50.998;6.250;2023-06-26T07:53:13;21.00;74.10
16666;DHT22;8446;50.998;6.250;2023-06-26T07:55:40;21.00;74.90
16666;DHT22;8446;50.998;6.250;2023-06-26T07:58:07;21.10;74.00
16666;DHT22;8446;50.998;6.250;2023-06-26T08:00:35;21.40;72.90
16666;DHT22;8446;50.998;6.250;2023-06-26T08:03:02;21.00;73.00
16666;DHT22;8446;50.998;6.250;2023-06-26T08:05:29;21.00;74.40
16666;DHT22;8446;50.998;6.250;2023-06-26T08:07:56;20.90;73.00
16666;DHT22;8446;50.998;6.250;2023-06-26T08:10:23;20.70;74.00
16666;DHT22;8446;50.998;6.250;2023-06-26T08:12:50;20.70;73.20
16666;DHT22;8446;50.998;6.250;2023-06-26T08:15:18;20.80;73.30
16666;DHT22;8446;50.998;6.250;2023-06-26T08:17:46;20.70;74.20
16666;DHT22;8446;50.998;6.250;2023-06-26T08:20:13;20.50;74.10
16666;DHT22;8446;50.998;6.250;2023-06-26T08:22:40;20.70;73.30
16666;DHT22;8446;50.998;6.250;2023-06-26T08:25:07;21.20;72.80
16666;DHT22;8446;50.998;6.250;2023-06-26T08:27:34;21.20;71.50
16666;DHT22;8446;50.998;6.250;2023-06-26T08:30:00;21.30;70.80
16666;DHT22;8446;50.998;6.250;2023-06-26T08:32:28;21.30;71.20
16666;DHT22;8446;50.998;6.250;2023-06-26T08:34:56;21.10;72.20
16666;DHT22;8446;50.998;6.250;2023-06-26T08:37:23;21.00;71.50
16666;DHT22;8446;50.998;6.250;2023-06-26T08:39:49;21.30;71.20
16666;DHT22;8446;50.998;6.250;2023-06-26T08:42:16;21.50;70.50
16666;DHT22;8446;50.998;6.250;2023-06-26T08:44:43;21.30;70.60
16666;DHT22;8446;50.998;6.250;2023-06-26T08:47:11;21.50;71.40
16666;DHT22;8446;50.998;6.250;2023-06-26T08:49:45;21.40;70.00
16666;DHT22;8446;50.998;6.250;2023-06-26T08:52:17;21.60;70.60
16666;DHT22;8446;50.998;6.250;2023-06-26T08:54:52;21.50;71.20
16666;DHT22;8446;50.998;6.250;2023-06-26T08:57:21;21.40;70.90
16666;DHT22;8446;50.998;6.250;2023-06-26T08:59:49;21.00;71.50
16666;DHT22;8446;50.998;6.250;2023-06-26T09:02:16;20.80;72.30
16666;DHT22;8446;50.998;6.250;2023-06-26T09:04:42;20.80;71.40
16666;DHT22;8446;50.998;6.250;2023-06-26T09:07:09;21.00;70.70
16666;DHT22;8446;50.998;6.250;2023-06-26T09:09:37;21.60;68.60
16666;DHT22;8446;50.998;6.250;2023-06-26T09:12:05;21.30;66.90
16666;DHT22;8446;50.998;6.250;2023-06-26T09:14:32;21.40;67.80
16666;DHT22;8446;50.998;6.250;2023-06-26T09:16:58;21.70;69.40
16666;DHT22;8446;50.998;6.250;2023-06-26T09:19:25;22.10;68.90
16666;DHT22;8446;50.998;6.250;2023-06-26T09:21:52;22.20;68.00
16666;DHT22;8446;50.998;6.250;2023-06-26T09:24:21;21.60;67.90
16666;DHT22;8446;50.998;6.250;2023-06-26T09:26:51;21.60;67.50
16666;DHT22;8446;50.998;6.250;2023-06-26T09:29:18;22.00;67.20
16666;DHT22;8446;50.998;6.250;2023-06-26T09:31:45;21.80;66.50
16666;DHT22;8446;50.998;6.250;2023-06-26T09:34:12;21.80;65.70
16666;DHT22;8446;50.998;6.250;2023-06-26T09:36:39;21.80;65.90
16666;DHT22;8446;50.998;6.250;2023-06-26T09:39:08;22.60;65.50
16666;DHT22;8446;50.998;6.250;2023-06-26T09:41:36;22.50;66.00
16666;DHT22;8446;50.998;6.250;2023-06-26T09:44:05;21.70;67.00
16666;DHT22;8446;50.998;6.250;2023-06-26T09:46:33;21.30;66.50
16666;DHT22;8446;50.998;6.250;2023-06-26T09:49:03;21.80;66.00
16666;DHT22;8446;50.998;6.250;2023-06-26T09:51:31;22.10;64.10
16666;DHT22;8446;50.998;6.250;2023-06-26T09:53:58;22.50;63.80
16666;DHT22;8446;50.998;6.250;2023-06-26T09:56:26;22.60;63.10
16666;DHT22;8446;50.998;6.250;2023-06-26T09:58:55;22.50;64.30
16666;DHT22;8446;50.998;6.250;2023-06-26T10:01:24;22.20;64.00
16666;DHT22;8446;50.998;6.250;2023-06-26T10:03:51;22.20;65.70
16666;DHT22;8446;50.998;6.250;2023-06-26T10:06:31;22.50;66.10
16666;DHT22;8446;50.998;6.250;2023-06-26T10:09:00;22.30;63.60
16666;DHT22;8446;50.998;6.250;2023-06-26T10:11:32;22.00;62.90
16666;DHT22;8446;50.998;6.250;2023-06-26T10:14:03;22.60;62.90
16666;DHT22;8446;50.998;6.250;2023-06-26T10:16:33;22.60;60.60
16666;DHT22;8446;50.998;6.250;2023-06-26T10:19:04;22.50;61.00
16666;DHT22;8446;50.998;6.250;2023-06-26T10:21:34;22.70;62.60
16666;DHT22;8446;50.998;6.250;2023-06-26T10:24:03;22.80;61.20
16666;DHT22;8446;50.998;6.250;2023-06-26T10:26:32;23.30;58.50
16666;DHT22;8446;50.998;6.250;2023-06-26T10:29:01;23.20;59.20
16666;DHT22;8446;50.998;6.250;2023-06-26T10:31:29;23.50;60.30
16666;DHT22;8446;50.998;6.250;2023-06-26T10:33:57;23.20;58.90
16666;DHT22;8446;50.998;6.250;2023-06-26T10:36:28;22.90;59.10
16666;DHT22;8446;50.998;6.250;2023-06-26T10:38:56;22.70;59.20
16666;DHT22;8446;50.998;6.250;2023-06-26T10:41:24;23.30;58.20
16666;DHT22;8446;50.998;6.250;2023-06-26T10:43:51;22.60;55.20
16666;DHT22;8446;50.998;6.250;2023-06-26T10:46:19;22.90;55.30
16666;DHT22;8446;50.998;6.250;2023-06-26T10:48:57;22.90;55.50
16666;DHT22;8446;50.998;6.250;2023-06-26T10:51:25;22.90;56.20
16666;DHT22;8446;50.998;6.250;2023-06-26T10:53:54;23.20;55.80
16666;DHT22;8446;50.998;6.250;2023-06-26T10:56:21;23.60;55.80
16666;DHT22;8446;50.998;6.250;2023-06-26T10:59:14;23.60;53.60
16666;DHT22;8446;50.998;6.250;2023-06-26T11:01:42;23.20;54.10
16666;DHT22;8446;50.998;6.250;2023-06-26T11:04:11;23.20;53.70
16666;DHT22;8446;50.998;6.250;2023-06-26T11:06:40;23.70;53.40
16666;DHT22;8446;50.998;6.250;2023-06-26T11:09:08;23.60;53.30
16666;DHT22;8446;50.998;6.250;2023-06-26T11:11:58;23.80;55.10
16666;DHT22;8446;50.998;6.250;2023-06-26T11:14:28;23.70;52.60
16666;DHT22;8446;50.998;6.250;2023-06-26T11:16:58;23.50;53.90
16666;DHT22;8446;50.998;6.250;2023-06-26T11:19:27;23.20;53.60
16666;DHT22;8446;50.998;6.250;2023-06-26T11:22:05;23.20;53.80
16666;DHT22;8446;50.998;6.250;2023-06-26T11:24:32;22.60;53.90
16666;DHT22;8446;50.998;6.250;2023-06-26T11:27:03;22.50;55.90
16666;DHT22;8446;50.998;6.250;2023-06-26T11:29:31;22.90;56.10
16666;DHT22;8446;50.998;6.250;2023-06-26T11:32:00;24.00;53.40
16666;DHT22;8446;50.998;6.250;2023-06-26T11:34:31;24.50;53.50
16666;DHT22;8446;50.998;6.250;2023-06-26T11:36:57;23.70;51.70
16666;DHT22;8446;50.998;6.250;2023-06-26T11:39:26;23.30;52.10
16666;DHT22;8446;50.998;6.250;2023-06-26T11:41:53;23.40;52.70
16666;DHT22;8446;50.998;6.250;2023-06-26T11:44:21;23.70;50.80
16666;DHT22;8446;50.998;6.250;2023-06-26T11:46:51;24.00;51.70
16666;DHT22;8446;50.998;6.250;2023-06-26T11:49:21;23.80;50.60
16666;DHT22;8446;50.998;6.250;2023-06-26T11:51:50;23.50;51.90
16666;DHT22;8446;50.998;6.250;2023-06-26T11:54:23;23.50;50.50
16666;DHT22;8446;50.998;6.250;2023-06-26T11:56:57;23.00;48.70
16666;DHT22;8446;50.998;6.250;2023-06-26T11:59:34;23.60;47.10
16666;DHT22;8446;50.998;6.250;2023-06-26T12:02:05;23.60;48.30
16666;DHT22;8446;50.998;6.250;2023-06-26T12:04:32;24.00;48.00
16666;DHT22;8446;50.998;6.250;2023-06-26T12:07:02;24.10;47.30
16666;DHT22;8446;50.998;6.250;2023-06-26T12:09:31;23.40;47.80
16666;DHT22;8446;50.998;6.250;2023-06-26T12:11:59;23.80;48.00
16666;DHT22;8446;50.998;6.250;2023-06-26T12:14:26;23.50;46.50
16666;DHT22;8446;50.998;6.250;2023-06-26T12:16:54;23.40;46.30
16666;DHT22;8446;50.998;6.250;2023-06-26T12:19:24;23.10;47.00
16666;DHT22;8446;50.998;6.250;2023-06-26T12:21:52;22.80;49.00
16666;DHT22;8446;50.998;6.250;2023-06-26T12:24:23;22.60;49.60
16666;DHT22;8446;50.998;6.250;2023-06-26T12:26:52;23.00;48.40
16666;DHT22;8446;50.998;6.250;2023-06-26T12:29:21;23.20;50.00
16666;DHT22;8446;50.998;6.250;2023-06-26T12:31:52;23.50;46.70
16666;DHT22;8446;50.998;6.250;2023-06-26T12:34:20;23.20;46.50
16666;DHT22;8446;50.998;6.250;2023-06-26T12:36:49;22.90;49.50
16666;DHT22;8446;50.998;6.250;2023-06-26T12:39:17;22.70;50.60
16666;DHT22;8446;50.998;6.250;2023-06-26T12:41:46;23.30;49.90
16666;DHT22;8446;50.998;6.250;2023-06-26T12:44:18;23.70;46.60
16666;DHT22;8446;50.998;6.250;2023-06-26T12:46:46;24.10;44.00
16666;DHT22;8446;50.998;6.250;2023-06-26T12:49:13;24.10;45.50
16666;DHT22;8446;50.998;6.250;2023-06-26T12:51:40;24.10;46.70
16666;DHT22;8446;50.998;6.250;2023-06-26T12:54:08;24.00;44.90
16666;DHT22;8446;50.998;6.250;2023-06-26T12:56:35;24.30;44.90
16666;DHT22;8446;50.998;6.250;2023-06-26T12:59:03;23.80;45.50
16666;DHT22;8446;50.998;6.250;2023-06-26T13:01:30;24.30;43.70
16666;DHT22;8446;50.998;6.250;2023-06-26T13:03:56;24.30;43.20
16666;DHT22;8446;50.998;6.250;2023-06-26T13:06:23;24.20;44.40
16666;DHT22;8446;50.998;6.250;2023-06-26T13:08:50;23.70;44.70
16666;DHT22;8446;50.998;6.250;2023-06-26T13:11:17;23.70;45.90
16666;DHT22;8446;50.998;6.250;2023-06-26T13:13:43;23.70;44.40
16666;DHT22;8446;50.998;6.250;2023-06-26T13:16:11;23.30;48.40
16666;DHT22;8446;50.998;6.250;2023-06-26T13:18:38;23.80;46.30
16666;DHT22;8446;50.998;6.250;2023-06-26T13:21:05;24.30;46.60
16666;DHT22;8446;50.998;6.250;2023-06-26T13:23:32;24.20;46.30
16666;DHT22;8446;50.998;6.250;2023-06-26T13:25:59;24.30;46.10
16666;DHT22;8446;50.998;6.250;2023-06-26T13:28:25;24.20;44.90
16666;DHT22;8446;50.998;6.250;2023-06-26T13:30:52;24.60;45.20
16666;DHT22;8446;50.998;6.250;2023-06-26T13:33:21;24.30;44.50
16666;DHT22;8446;50.998;6.250;2023-06-26T13:35:50;24.30;46.40
16666;DHT22;8446;50.998;6.250;2023-06-26T13:38:18;24.10;47.30
16666;DHT22;8446;50.998;6.250;2023-06-26T13:40:45;24.60;45.50
16666;DHT22;8446;50.998;6.250;2023-06-26T13:43:12;24.50;46.80
16666;DHT22;8446;50.998;6.250;2023-06-26T13:45:38;24.60;46.50
16666;DHT22;8446;50.998;6.250;2023-06-26T13:48:05;24.10;47.00
16666;DHT22;8446;50.998;6.250;2023-06-26T13:50:33;24.40;45.50
16666;DHT22;8446;50.998;6.250;2023-06-26T13:53:00;25.00;42.00
16666;DHT22;8446;50.998;6.250;2023-06-26T13:55:28;24.50;47.30
16666;DHT22;8446;50.998;6.250;2023-06-26T13:57:56;24.70;44.60
16666;DHT22;8446;50.998;6.250;2023-06-26T14:00:24;24.20;43.60
16666;DHT22;8446;50.998;6.250;2023-06-26T14:02:51;23.30;46.40
16666;DHT22;8446;50.998;6.250;2023-06-26T14:05:17;23.70;46.30
16666;DHT22;8446;50.998;6.250;2023-06-26T14:07:46;23.30;47.60
16666;DHT22;8446;50.998;6.250;2023-06-26T14:10:13;23.70;46.70
16666;DHT22;8446;50.998;6.250;2023-06-26T14:12:40;23.40;50.70
16666;DHT22;8446;50.998;6.250;2023-06-26T14:15:08;23.50;45.80
16666;DHT22;8446;50.998;6.250;2023-06-26T14:17:35;23.20;48.20
16666;DHT22;8446;50.998;6.250;2023-06-26T14:20:02;23.40;46.50
16666;DHT22;8446;50.998;6.250;2023-06-26T14:22:30;23.60;45.90
16666;DHT22;8446;50.998;6.250;2023-06-26T14:24:59;23.70;46.20
16666;DHT22;8446;50.998;6.250;2023-06-26T14:27:26;23.50;45.10
16666;DHT22;8446;50.998;6.250;2023-06-26T14:29:53;23.60;46.10
16666;DHT22;8446;50.998;6.250;2023-06-26T14:32:19;23.80;44.60
16666;DHT22;8446;50.998;6.250;2023-06-26T14:34:46;24.50;43.20
16666;DHT22;8446;50.998;6.250;2023-06-26T14:37:13;24.60;44.60
16666;DHT22;8446;50.998;6.250;2023-06-26T14:39:40;24.30;45.80
16666;DHT22;8446;50.998;6.250;2023-06-26T14:42:09;24.50;44.70
16666;DHT22;8446;50.998;6.250;2023-06-26T14:44:35;24.40;43.00
16666;DHT22;8446;50.998;6.250;2023-06-26T14:47:02;23.40;45.10
16666;DHT22;8446;50.998;6.250;2023-06-26T14:49:30;23.30;45.80
16666;DHT22;8446;50.998;6.250;2023-06-26T14:51:56;22.90;45.80
16666;DHT22;8446;50.998;6.250;2023-06-26T14:54:23;22.70;47.00
16666;DHT22;8446;50.998;6.250;2023-06-26T14:56:50;22.60;46.80
16666;DHT22;8446;50.998;6.250;2023-06-26T14:59:21;23.00;47.30
16666;DHT22;8446;50.998;6.250;2023-06-26T15:01:48;23.10;44.00
16666;DHT22;8446;50.998;6.250;2023-06-26T15:04:14;23.10;47.10
16666;DHT22;8446;50.998;6.250;2023-06-26T15:06:41;22.90;44.40
16666;DHT22;8446;50.998;6.250;2023-06-26T15:09:08;22.60;46.40
16666;DHT22;8446;50.998;6.250;2023-06-26T15:11:35;22.60;45.90
16666;DHT22;8446;50.998;6.250;2023-06-26T15:14:02;22.70;45.90
16666;DHT22;8446;50.998;6.250;2023-06-26T15:16:30;23.10;45.80
16666;DHT22;8446;50.998;6.250;2023-06-26T15:18:57;22.70;45.80
16666;DHT22;8446;50.998;6.250;2023-06-26T15:21:24;23.30;45.50
16666;DHT22;8446;50.998;6.250;2023-06-26T15:23:51;23.20;44.10
16666;DHT22;8446;50.998;6.250;2023-06-26T15:26:17;23.20;43.60
16666;DHT22;8446;50.998;6.250;2023-06-26T15:28:44;23.10;45.30
16666;DHT22;8446;50.998;6.250;2023-06-26T15:31:12;22.40;47.00
16666;DHT22;8446;50.998;6.250;2023-06-26T15:33:40;22.60;47.20
16666;DHT22;8446;50.998;6.250;2023-06-26T15:36:06;22.40;46.30
16666;DHT22;8446;50.998;6.250;2023-06-26T15:38:33;22.40;47.90
16666;DHT22;8446;50.998;6.250;2023-06-26T15:41:00;22.50;47.40
16666;DHT22;8446;50.998;6.250;2023-06-26T15:43:28;22.60;46.20
16666;DHT22;8446;50.998;6.250;2023-06-26T15:45:55;22.80;43.90
16666;DHT22;8446;50.998;6.250;2023-06-26T15:48:21;23.40;43.50